sensor_id;sensor_type;location;lat;lon;timestamp;temperature;humidity
11511;DHT22;5812;48.864;9.190;2023-04-03T00:01:31;3.60;99.90
11511;DHT22;5812;48.864;9.190;2023-04-03T00:03:57;3.60;99.90
11511;DHT22;5812;48.864;9.190;2023-04-03T00:06:23;3.50;99.90
11511;DHT22;5812;48.864;9.190;2023-04-03T00:08:50;3.50;99.90
11511;DHT22;5812;48.864;9.190;2023-04-03T00:11:16;3.50;99.90
11511;DHT22;5812;48.864;9.190;2023-04-03T00:13:43;3.50;99.90
11511;DHT22;5812;48.864;9.190;2023-04-03T00:16:09;3.40;99.90
11511;DHT22;5812;48.864;9.190;2023-04-03T00:18:35;3.50;99.90
11511;DHT22;5812;48.864;9.190;2023-04-03T00:21:01;3.50;99.90
11511;DHT22;5812;48.864;9.190;2023-04-03T00:23:27;3.50;99.90
11511;DHT22;5812;48.864;9.190;2023-04-03T00:25:52;3.50;99.90
11511;DHT22;5812;48.864;9.190;2023-04-03T00:28:18;3.50;99.90
11511;DHT22;5812;48.864;9.190;2023-04-03T00:30:44;3.50;99.90
11511;DHT22;5812;48.864;9.190;2023-04-03T00:33:13;3.40;99.90
11511;DHT22;5812;48.864;9.190;2023-04-03T00:35:39;3.50;99.90
11511;DHT22;5812;48.864;9.190;2023-04-03T00:38:05;3.50;99.90
11511;DHT22;5812;48.864;9.190;2023-04-03T00:40:35;3.40;99.90
11511;DHT22;5812;48.864;9.190;2023-04-03T00:43:01;3.50;99.90
11511;DHT22;5812;48.864;9.190;2023-04-03T00:45:36;3.50;99.90
11511;DHT22;5812;48.864;9.190;2023-04-03T00:48:04;3.40;99.90
11511;DHT22;5812;48.864;9.190;2023-04-03T00:50:33;3.40;99.90
11511;DHT22;5812;48.864;9.190;2023-04-03T00:53:00;3.40;99.90
11511;DHT22;5812;48.864;9.190;2023-04-03T00:55:27;3.40;99.90
11511;DHT22;5812;48.864;9.190;2023-04-03T00:57:53;3.40;99.90
11511;DHT22;5812;48.864;9.190;2023-04-03T01:00:21;3.40;99.90
11511;DHT22;5812;48.864;9.190;2023-04-03T01:02:48;3.40;99.90
11511;DHT22;5812;48.864;9.190;2023-04-03T01:05:15;3.40;99.90
11511;DHT22;5812;48.864;9.190;2023-04-03T01:07:41;3.30;99.90
11511;DHT22;5812;48.864;9.190;2023-04-03T01:10:10;3.30;99.90
11511;DHT22;5812;48.864;9.190;2023-04-03T01:12:38;3.30;99.90
11511;DHT22;5812;48.864;9.190;2023-04-03T01:15:11;3.30;99.90
11511;DHT22;5812;48.864;9.190;2023-04-03T01:23:05;3.30;99.90
11511;DHT22;5812;48.864;9.190;2023-04-03T01:25:33;3.30;99.90
11511;DHT22;5812;48.864;9.190;2023-04-03T01:27:59;3.20;99.90
11511;DHT22;5812;48.864;9.190;2023-04-03T01:30:31;3.30;99.90
11511;DHT22;5812;48.864;9.190;2023-04-03T01:32:57;3.20;99.90
11511;DHT22;5812;48.864;9.190;2023-04-03T01:35:22;3.30;99.90
11511;DHT22;5812;48.864;9.190;2023-04-03T01:37:48;3.20;99.90
11511;DHT22;5812;48.864;9.190;2023-04-03T01:40:14;3.20;99.90
11511;DHT22;5812;48.864;9.190;2023-04-03T01:42:40;3.30;99.90
11511;DHT22;5812;48.864;9.190;2023-04-03T01:45:06;3.30;99.90
11511;DHT22;5812;48.864;9.190;2023-04-03T01:47:32;3.30;99.90
11511;DHT22;5812;48.864;9.190;2023-04-03T01:49:57;3.20;99.90
11511;DHT22;5812;48.864;9.190;2023-04-03T01:52:23;3.20;99.90
11511;DHT22;5812;48.864;9.190;2023-04-03T01:54:48;3.20;99.90
11511;DHT22;5812;48.864;9.190;2023-04-03T01:57:14;3.10;99.90
11511;DHT22;5812;48.864;9.190;2023-04-03T01:59:40;3.10;99.90
11511;DHT22;5812;48.864;9.190;2023-04-03T02:02:06;3.10;99.90
11511;DHT22;5812;48.864;9.190;2023-04-03T02:04:32;3.10;99.90
11511;DHT22;5812;48.864;9.190;2023-04-03T02:06:58;3.10;99.90
11511;DHT22;5812;48.864;9.190;2023-04-03T02:09:23;3.10;99.90
11511;DHT22;5812;48.864;9.190;2023-04-03T02:11:49;3.10;99.90
11511;DHT22;5812;48.864;9.190;2023-04-03T02:14:15;3.10;99.90
11511;DHT22;5812;48.864;9.190;2023-04-03T02:16:40;3.10;99.90
11511;DHT22;5812;48.864;9.190;2023-04-03T02:19:06;3.10;99.90
11511;DHT22;5812;48.864;9.190;2023-04-03T02:21:31;3.20;99.90
11511;DHT22;5812;48.864;9.190;2023-04-03T02:23:57;3.20;99.90
11511;DHT22;5812;48.864;9.190;2023-04-03T02:26:23;3.30;99.90
11511;DHT22;5812;48.864;9.190;2023-04-03T02:28:48;3.30;99.90
11511;DHT22;5812;48.864;9.190;2023-04-03T02:31:14;3.30;99.90
11511;DHT22;5812;48.864;9.190;2023-04-03T02:33:40;3.30;99.90
11511;DHT22;5812;48.864;9.190;2023-04-03T02:36:07;3.40;99.90
11511;DHT22;5812;48.864;9.190;2023-04-03T02:38:34;3.30;99.90
11511;DHT22;5812;48.864;9.190;2023-04-03T02:41:05;3.40;99.90
11511;DHT22;5812;48.864;9.190;2023-04-03T02:43:31;3.40;99.90
11511;DHT22;5812;48.864;9.190;2023-04-03T02:45:56;3.40;99.90
11511;DHT22;5812;48.864;9.190;2023-04-03T02:48:22;3.40;99.90
11511;DHT22;5812;48.864;9.190;2023-04-03T02:50:48;3.40;99.90
11511;DHT22;5812;48.864;9.190;2023-04-03T02:53:14;3.40;99.90
11511;DHT22;5812;48.864;9.190;2023-04-03T02:55:40;3.40;99.90
11511;DHT22;5812;48.864;9.190;2023-04-03T02:58:06;3.40;99.90
11511;DHT22;5812;48.864;9.190;2023-04-03T03:00:31;3.40;99.90
11511;DHT22;5812;48.864;9.190;2023-04-03T03:02:57;3.40;99.90
11511;DHT22;5812;48.864;9.190;2023-04-03T03:05:22;3.40;99.90
11511;DHT22;5812;48.864;9.190;2023-04-03T03:07:48;3.50;99.90
11511;DHT22;5812;48.864;9.190;2023-04-03T03:10:14;3.40;99.90
11511;DHT22;5812;48.864;9.190;2023-04-03T03:12:40;3.40;99.90
11511;DHT22;5812;48.864;9.190;2023-04-03T03:15:06;3.40;99.90
11511;DHT22;5812;48.864;9.190;2023-04-03T03:17:32;3.40;99.90
11511;DHT22;5812;48.864;9.190;2023-04-03T03:19:58;3.50;99.90
11511;DHT22;5812;48.864;9.190;2023-04-03T03:22:24;3.40;99.90
11511;DHT22;5812;48.864;9.190;2023-04-03T03:24:49;5.10;99.90
11511;DHT22;5812;48.864;9.190;2023-04-03T03:27:15;3.40;99.90
11511;DHT22;5812;48.864;9.190;2023-04-03T03:29:42;3.40;99.90
11511;DHT22;5812;48.864;9.190;2023-04-03T03:32:08;3.50;99.90
11511;DHT22;5812;48.864;9.190;2023-04-03T03:34:33;3.40;99.90
11511;DHT22;5812;48.864;9.190;2023-04-03T03:36:59;6.60;99.90
11511;DHT22;5812;48.864;9.190;2023-04-03T03:39:25;3.50;99.90
11511;DHT22;5812;48.864;9.190;2023-04-03T03:41:51;3.50;99.90
11511;DHT22;5812;48.864;9.190;2023-04-03T03:44:19;3.40;99.90
11511;DHT22;5812;48.864;9.190;2023-04-03T03:46:45;3.50;99.90
11511;DHT22;5812;48.864;9.190;2023-04-03T03:49:10;3.50;99.90
11511;DHT22;5812;48.864;9.190;2023-04-03T03:51:37;3.50;99.90
11511;DHT22;5812;48.864;9.190;2023-04-03T03:54:03;3.50;99.90
11511;DHT22;5812;48.864;9.190;2023-04-03T03:56:29;3.50;99.90
11511;DHT22;5812;48.864;9.190;2023-04-03T03:58:54;3.60;99.90
11511;DHT22;5812;48.864;9.190;2023-04-03T04:01:22;3.60;99.90
11511;DHT22;5812;48.864;9.190;2023-04-03T04:03:48;3.60;99.90
11511;DHT22;5812;48.864;9.190;2023-04-03T04:06:14;4.90;99.90
11511;DHT22;5812;48.864;9.190;2023-04-03T04:08:39;3.60;99.90
11511;DHT22;5812;48.864;9.190;2023-04-03T04:11:05;3.60;99.90
11511;DHT22;5812;48.864;9.190;2023-04-03T04:13:31;3.50;99.90
11511;DHT22;5812;48.864;9.190;2023-04-03T04:15:56;3.50;99.90
11511;DHT22;5812;48.864;9.190;2023-04-03T04:18:22;3.50;99.90
11511;DHT22;5812;48.864;9.190;2023-04-03T04:20:48;3.60;99.90
11511;DHT22;5812;48.864;9.190;2023-04-03T04:23:14;3.50;99.90
11511;DHT22;5812;48.864;9.190;2023-04-03T04:25:40;3.60;99.90
11511;DHT22;5812;48.864;9.190;2023-04-03T04:28:06;3.50;99.90
11511;DHT22;5812;48.864;9.190;2023-04-03T04:30:31;6.50;99.90
11511;DHT22;5812;48.864;9.190;2023-04-03T04:32:57;3.50;99.90
11511;DHT22;5812;48.864;9.190;2023-04-03T04:35:23;3.50;99.90
11511;DHT22;5812;48.864;9.190;2023-04-03T04:37:48;3.40;99.90
11511;DHT22;5812;48.864;9.190;2023-04-03T04:40:14;6.00;99.90
11511;DHT22;5812;48.864;9.190;2023-04-03T04:42:39;3.40;99.90
11511;DHT22;5812;48.864;9.190;2023-04-03T04:45:05;4.60;99.90
11511;DHT22;5812;48.864;9.190;2023-04-03T04:47:31;3.50;99.90
11511;DHT22;5812;48.864;9.190;2023-04-03T04:49:57;3.50;99.90
11511;DHT22;5812;48.864;9.190;2023-04-03T04:52:22;3.50;99.90
11511;DHT22;5812;48.864;9.190;2023-04-03T04:54:48;4.20;99.90
11511;DHT22;5812;48.864;9.190;2023-04-03T04:57:13;3.50;99.90
11511;DHT22;5812;48.864;9.190;2023-04-03T04:59:39;3.40;99.90
11511;DHT22;5812;48.864;9.190;2023-04-03T05:02:05;3.50;99.90
11511;DHT22;5812;48.864;9.190;2023-04-03T05:04:30;3.50;99.90
11511;DHT22;5812;48.864;9.190;2023-04-03T05:06:56;3.40;99.90
11511;DHT22;5812;48.864;9.190;2023-04-03T05:09:22;3.40;99.90
11511;DHT22;5812;48.864;9.190;2023-04-03T05:11:47;3.40;99.90
11511;DHT22;5812;48.864;9.190;2023-04-03T05:14:13;4.40;99.90
11511;DHT22;5812;48.864;9.190;2023-04-03T05:16:38;5.20;99.90
11511;DHT22;5812;48.864;9.190;2023-04-03T05:19:04;3.40;99.90
11511;DHT22;5812;48.864;9.190;2023-04-03T05:21:30;3.50;99.90
11511;DHT22;5812;48.864;9.190;2023-04-03T05:23:58;3.50;99.90
11511;DHT22;5812;48.864;9.190;2023-04-03T05:26:25;3.50;99.90
11511;DHT22;5812;48.864;9.190;2023-04-03T05:28:51;3.50;99.90
11511;DHT22;5812;48.864;9.190;2023-04-03T05:31:17;3.40;99.90
11511;DHT22;5812;48.864;9.190;2023-04-03T05:33:43;3.40;99.90
11511;DHT22;5812;48.864;9.190;2023-04-03T05:36:09;3.40;99.90
11511;DHT22;5812;48.864;9.190;2023-04-03T05:38:34;3.40;99.90
11511;DHT22;5812;48.864;9.190;2023-04-03T05:41:00;3.20;99.90
11511;DHT22;5812;48.864;9.190;2023-04-03T05:43:26;3.20;99.90
11511;DHT22;5812;48.864;9.190;2023-04-03T05:45:52;3.20;99.90
11511;DHT22;5812;48.864;9.190;2023-04-03T05:48:17;3.20;99.90
11511;DHT22;5812;48.864;9.190;2023-04-03T05:50:43;3.30;99.90
11511;DHT22;5812;48.864;9.190;2023-04-03T05:53:21;3.30;99.90
11511;DHT22;5812;48.864;9.190;2023-04-03T05:55:48;3.30;99.90
11511;DHT22;5812;48.864;9.190;2023-04-03T05:58:14;3.50;99.90
11511;DHT22;5812;48.864;9.190;2023-04-03T06:00:40;3.50;99.90
11511;DHT22;5812;48.864;9.190;2023-04-03T06:03:05;3.60;99.90
11511;DHT22;5812;48.864;9.190;2023-04-03T06:05:31;3.60;99.90
11511;DHT22;5812;48.864;9.190;2023-04-03T06:07:57;3.60;99.90
11511;DHT22;5812;48.864;9.190;2023-04-03T06:10:23;3.70;99.90
11511;DHT22;5812;48.864;9.190;2023-04-03T06:12:49;3.70;99.90
11511;DHT22;5812;48.864;9.190;2023-04-03T06:15:14;3.70;99.90
11511;DHT22;5812;48.864;9.190;2023-04-03T06:17:42;3.70;99.90
11511;DHT22;5812;48.864;9.190;2023-04-03T06:20:08;3.80;99.90
11511;DHT22;5812;48.864;9.190;2023-04-03T06:22:34;3.80;99.90
11511;DHT22;5812;48.864;9.190;2023-04-03T06:25:00;4.00;99.90
11511;DHT22;5812;48.864;9.190;2023-04-03T06:27:27;3.90;99.90
11511;DHT22;5812;48.864;9.190;2023-04-03T06:29:53;3.90;99.90
11511;DHT22;5812;48.864;9.190;2023-04-03T06:32:18;3.90;99.90
11511;DHT22;5812;48.864;9.190;2023-04-03T06:34:44;3.90;99.90
11511;DHT22;5812;48.864;9.190;2023-04-03T06:37:18;3.90;99.90
11511;DHT22;5812;48.864;9.190;2023-04-03T06:39:44;4.00;99.90
11511;DHT22;5812;48.864;9.190;2023-04-03T06:42:10;4.00;99.90
11511;DHT22;5812;48.864;9.190;2023-04-03T06:44:36;4.10;99.90
11511;DHT22;5812;48.864;9.190;2023-04-03T06:47:02;4.20;99.90
11511;DHT22;5812;48.864;9.190;2023-04-03T06:49:28;4.20;99.90
11511;DHT22;5812;48.864;9.190;2023-04-03T06:51:54;4.30;99.90
11511;DHT22;5812;48.864;9.190;2023-04-03T06:54:20;4.30;99.90
11511;DHT22;5812;48.864;9.190;2023-04-03T06:56:46;4.30;99.90
11511;DHT22;5812;48.864;9.190;2023-04-03T06:59:12;4.30;99.90
11511;DHT22;5812;48.864;9.190;2023-04-03T07:01:41;4.30;99.90
11511;DHT22;5812;48.864;9.190;2023-04-03T07:04:07;4.40;99.90
11511;DHT22;5812;48.864;9.190;2023-04-03T07:06:33;4.40;99.90
11511;DHT22;5812;48.864;9.190;2023-04-03T07:08:59;4.50;99.90
11511;DHT22;5812;48.864;9.190;2023-04-03T07:11:25;4.50;99.90
11511;DHT22;5812;48.864;9.190;2023-04-03T07:13:51;4.50;99.90
11511;DHT22;5812;48.864;9.190;2023-04-03T07:16:17;4.70;99.90
11511;DHT22;5812;48.864;9.190;2023-04-03T07:18:44;4.80;99.90
11511;DHT22;5812;48.864;9.190;2023-04-03T07:21:09;4.90;99.90
11511;DHT22;5812;48.864;9.190;2023-04-03T07:23:35;5.10;99.90
11511;DHT22;5812;48.864;9.190;2023-04-03T07:26:00;5.20;99.90
11511;DHT22;5812;48.864;9.190;2023-04-03T07:28:27;5.20;99.90
11511;DHT22;5812;48.864;9.190;2023-04-03T07:30:59;5.30;99.90
11511;DHT22;5812;48.864;9.190;2023-04-03T07:33:25;5.30;99.90
11511;DHT22;5812;48.864;9.190;2023-04-03T07:35:51;5.50;99.90
11511;DHT22;5812;48.864;9.190;2023-04-03T07:38:17;5.70;99.90
11511;DHT22;5812;48.864;9.190;2023-04-03T07:40:47;6.20;99.90
11511;DHT22;5812;48.864;9.190;2023-04-03T07:43:14;6.40;99.90
11511;DHT22;5812;48.864;9.190;2023-04-03T07:45:40;6.60;99.90
11511;DHT22;5812;48.864;9.190;2023-04-03T07:48:06;6.90;99.90
11511;DHT22;5812;48.864;9.190;2023-04-03T07:50:32;7.00;99.90
11511;DHT22;5812;48.864;9.190;2023-04-03T07:52:58;7.40;99.90
11511;DHT22;5812;48.864;9.190;2023-04-03T07:55:24;7.50;99.90
11511;DHT22;5812;48.864;9.190;2023-04-03T07:57:50;7.50;99.90
11511;DHT22;5812;48.864;9.190;2023-04-03T08:00:16;7.30;99.90
11511;DHT22;5812;48.864;9.190;2023-04-03T08:02:43;7.30;99.90
11511;DHT22;5812;48.864;9.190;2023-04-03T08:05:10;7.50;99.90
11511;DHT22;5812;48.864;9.190;2023-04-03T08:07:37;7.80;99.90
11511;DHT22;5812;48.864;9.190;2023-04-03T08:10:03;7.20;99.90
11511;DHT22;5812;48.864;9.190;2023-04-03T08:12:29;7.00;99.90
11511;DHT22;5812;48.864;9.190;2023-04-03T08:14:57;7.10;99.90
11511;DHT22;5812;48.864;9.190;2023-04-03T08:17:22;7.20;99.90
11511;DHT22;5812;48.864;9.190;2023-04-03T08:19:48;7.20;99.90
11511;DHT22;5812;48.864;9.190;2023-04-03T08:22:14;7.20;99.90
11511;DHT22;5812;48.864;9.190;2023-04-03T08:24:40;7.10;99.90
11511;DHT22;5812;48.864;9.190;2023-04-03T08:27:05;7.00;99.90
11511;DHT22;5812;48.864;9.190;2023-04-03T08:29:31;7.20;99.90
11511;DHT22;5812;48.864;9.190;2023-04-03T08:31:56;7.10;99.90
11511;DHT22;5812;48.864;9.190;2023-04-03T08:34:22;7.10;99.90
11511;DHT22;5812;48.864;9.190;2023-04-03T08:36:48;7.10;99.90
11511;DHT22;5812;48.864;9.190;2023-04-03T08:39:13;7.50;99.90
11511;DHT22;5812;48.864;9.190;2023-04-03T08:44:25;7.20;99.90
11511;DHT22;5812;48.864;9.190;2023-04-03T08:49:57;7.30;99.90
11511;DHT22;5812;48.864;9.190;2023-04-03T08:52:44;7.40;99.90
11511;DHT22;5812;48.864;9.190;2023-04-03T08:55:22;7.40;99.90
11511;DHT22;5812;48.864;9.190;2023-04-03T08:57:51;7.80;99.90
11511;DHT22;5812;48.864;9.190;2023-04-03T09:00:22;7.90;99.90
11511;DHT22;5812;48.864;9.190;2023-04-03T09:02:51;8.00;99.90
11511;DHT22;5812;48.864;9.190;2023-04-03T09:05:19;8.00;99.90
11511;DHT22;5812;48.864;9.190;2023-04-03T09:07:49;8.00;99.90
11511;DHT22;5812;48.864;9.190;2023-04-03T09:10:27;8.30;99.90
11511;DHT22;5812;48.864;9.190;2023-04-03T09:13:01;8.40;99.90
11511;DHT22;5812;48.864;9.190;2023-04-03T09:15:28;8.10;99.90
11511;DHT22;5812;48.864;9.190;2023-04-03T09:18:15;7.60;99.90
11511;DHT22;5812;48.864;9.190;2023-04-03T09:26:11;7.60;99.90
11511;DHT22;5812;48.864;9.190;2023-04-03T09:28:40;7.70;99.90
11511;DHT22;5812;48.864;9.190;2023-04-03T09:31:29;8.00;99.90
11511;DHT22;5812;48.864;9.190;2023-04-03T09:34:03;8.50;99.90
11511;DHT22;5812;48.864;9.190;2023-04-03T09:36:51;8.40;99.90
11511;DHT22;5812;48.864;9.190;2023-04-03T09:39:20;8.30;99.90
11511;DHT22;5812;48.864;9.190;2023-04-03T09:42:22;8.40;99.90
11511;DHT22;5812;48.864;9.190;2023-04-03T09:45:21;8.10;99.90
11511;DHT22;5812;48.864;9.190;2023-04-03T09:47:47;8.20;99.90
11511;DHT22;5812;48.864;9.190;2023-04-03T09:52:44;8.20;99.90
11511;DHT22;5812;48.864;9.190;2023-04-03T09:55:24;8.10;99.90
11511;DHT22;5812;48.864;9.190;2023-04-03T09:58:00;8.10;99.90
11511;DHT22;5812;48.864;9.190;2023-04-03T10:00:37;8.00;99.90
11511;DHT22;5812;48.864;9.190;2023-04-03T10:03:04;8.10;99.90
11511;DHT22;5812;48.864;9.190;2023-04-03T10:05:40;7.90;99.90
11511;DHT22;5812;48.864;9.190;2023-04-03T10:10:37;8.00;99.90
11511;DHT22;5812;48.864;9.190;2023-04-03T10:13:11;7.90;99.90
11511;DHT22;5812;48.864;9.190;2023-04-03T10:15:46;7.60;99.90
11511;DHT22;5812;48.864;9.190;2023-04-03T10:21:06;7.50;99.90
11511;DHT22;5812;48.864;9.190;2023-04-03T10:23:45;7.60;99.90
11511;DHT22;5812;48.864;9.190;2023-04-03T10:26:38;7.60;99.90
11511;DHT22;5812;48.864;9.190;2023-04-03T10:29:27;7.60;99.90
11511;DHT22;5812;48.864;9.190;2023-04-03T10:32:18;7.50;99.90
11511;DHT22;5812;48.864;9.190;2023-04-03T10:34:47;7.70;99.90
11511;DHT22;5812;48.864;9.190;2023-04-03T10:38:08;7.90;99.90
11511;DHT22;5812;48.864;9.190;2023-04-03T10:40:51;8.00;99.90
11511;DHT22;5812;48.864;9.190;2023-04-03T10:46:23;7.80;99.90
11511;DHT22;5812;48.864;9.190;2023-04-03T10:49:10;7.70;99.90
11511;DHT22;5812;48.864;9.190;2023-04-03T10:51:44;7.50;99.90
11511;DHT22;5812;48.864;9.190;2023-04-03T10:54:23;7.40;99.90
11511;DHT22;5812;48.864;9.190;2023-04-03T10:56:56;7.40;99.90
11511;DHT22;5812;48.864;9.190;2023-04-03T11:08:24;7.80;99.90
11511;DHT22;5812;48.864;9.190;2023-04-03T11:10:55;8.00;99.90
11511;DHT22;5812;48.864;9.190;2023-04-03T11:13:39;7.90;99.90
11511;DHT22;5812;48.864;9.190;2023-04-03T11:16:06;7.80;99.90
11511;DHT22;5812;48.864;9.190;2023-04-03T11:18:44;8.00;99.90
11511;DHT22;5812;48.864;9.190;2023-04-03T11:21:20;7.80;99.90
11511;DHT22;5812;48.864;9.190;2023-04-03T11:23:47;7.80;99.90
11511;DHT22;5812;48.864;9.190;2023-04-03T11:26:15;7.70;99.90
11511;DHT22;5812;48.864;9.190;2023-04-03T11:28:42;7.60;99.90
11511;DHT22;5812;48.864;9.190;2023-04-03T11:31:30;7.60;99.90
11511;DHT22;5812;48.864;9.190;2023-04-03T11:36:48;7.50;99.90
11511;DHT22;5812;48.864;9.190;2023-04-03T11:39:33;7.60;99.90
11511;DHT22;5812;48.864;9.190;2023-04-03T11:42:34;7.60;99.90
11511;DHT22;5812;48.864;9.190;2023-04-03T11:47:58;7.90;99.90
11511;DHT22;5812;48.864;9.190;2023-04-03T12:03:30;8.40;99.90
11511;DHT22;5812;48.864;9.190;2023-04-03T12:16:27;8.00;99.90
11511;DHT22;5812;48.864;9.190;2023-04-03T12:27:00;8.90;99.90
11511;DHT22;5812;48.864;9.190;2023-04-03T12:32:26;9.10;99.90
11511;DHT22;5812;48.864;9.190;2023-04-03T12:40:43;8.50;99.90
11511;DHT22;5812;48.864;9.190;2023-04-03T12:43:24;8.10;99.90
11511;DHT22;5812;48.864;9.190;2023-04-03T12:48:46;8.60;99.90
11511;DHT22;5812;48.864;9.190;2023-04-03T12:51:19;8.60;99.90
11511;DHT22;5812;48.864;9.190;2023-04-03T12:53:47;8.40;99.90
11511;DHT22;5812;48.864;9.190;2023-04-03T12:56:26;8.30;99.90
11511;DHT22;5812;48.864;9.190;2023-04-03T12:58:54;8.30;99.90
11511;DHT22;5812;48.864;9.190;2023-04-03T13:01:24;8.10;99.90
11511;DHT22;5812;48.864;9.190;2023-04-03T13:03:55;8.10;99.90
11511;DHT22;5812;48.864;9.190;2023-04-03T13:06:26;8.10;99.90
11511;DHT22;5812;48.864;9.190;2023-04-03T13:08:54;8.40;99.90
11511;DHT22;5812;48.864;9.190;2023-04-03T13:11:23;8.30;99.90
11511;DHT22;5812;48.864;9.190;2023-04-03T13:14:02;8.50;99.90
11511;DHT22;5812;48.864;9.190;2023-04-03T13:16:29;8.40;99.90
11511;DHT22;5812;48.864;9.190;2023-04-03T13:18:55;8.00;99.90
11511;DHT22;5812;48.864;9.190;2023-04-03T13:21:24;7.90;99.90
11511;DHT22;5812;48.864;9.190;2023-04-03T13:23:53;7.90;99.90
11511;DHT22;5812;48.864;9.190;2023-04-03T13:26:22;8.10;99.90
11511;DHT22;5812;48.864;9.190;2023-04-03T13:28:48;8.30;99.90
11511;DHT22;5812;48.864;9.190;2023-04-03T13:34:11;8.90;99.90
11511;DHT22;5812;48.864;9.190;2023-04-03T13:36:40;9.20;99.90
11511;DHT22;5812;48.864;9.190;2023-04-03T13:41:49;12.60;99.90
11511;DHT22;5812;48.864;9.190;2023-04-03T13:44:29;12.20;99.90
11511;DHT22;5812;48.864;9.190;2023-04-03T13:50:02;11.00;99.90
11511;DHT22;5812;48.864;9.190;2023-04-03T13:52:42;10.60;99.90
11511;DHT22;5812;48.864;9.190;2023-04-03T13:55:33;10.20;99.90
11511;DHT22;5812;48.864;9.190;2023-04-03T14:00:36;10.00;99.90
11511;DHT22;5812;48.864;9.190;2023-04-03T14:03:11;10.10;99.90
11511;DHT22;5812;48.864;9.190;2023-04-03T14:05:37;9.80;99.90
11511;DHT22;5812;48.864;9.190;2023-04-03T14:08:03;9.60;99.90
11511;DHT22;5812;48.864;9.190;2023-04-03T14:10:30;9.90;99.90
11511;DHT22;5812;48.864;9.190;2023-04-03T14:12:55;9.70;99.90
11511;DHT22;5812;48.864;9.190;2023-04-03T14:15:27;9.40;99.90
11511;DHT22;5812;48.864;9.190;2023-04-03T14:17:54;9.00;99.90
11511;DHT22;5812;48.864;9.190;2023-04-03T14:20:23;9.20;99.90
11511;DHT22;5812;48.864;9.190;2023-04-03T14:22:49;9.30;99.90
11511;DHT22;5812;48.864;9.190;2023-04-03T14:25:17;9.20;99.90
11511;DHT22;5812;48.864;9.190;2023-04-03T14:27:45;9.50;99.90
11511;DHT22;5812;48.864;9.190;2023-04-03T14:30:21;10.10;99.90
11511;DHT22;5812;48.864;9.190;2023-04-03T14:32:47;10.30;99.90
11511;DHT22;5812;48.864;9.190;2023-04-03T14:35:14;10.10;99.90
11511;DHT22;5812;48.864;9.190;2023-04-03T14:37:40;9.80;99.90
11511;DHT22;5812;48.864;9.190;2023-04-03T14:40:07;9.50;99.90
11511;DHT22;5812;48.864;9.190;2023-04-03T14:42:36;9.30;99.90
11511;DHT22;5812;48.864;9.190;2023-04-03T14:45:05;9.30;99.90
11511;DHT22;5812;48.864;9.190;2023-04-03T14:47:32;9.00;99.90
11511;DHT22;5812;48.864;9.190;2023-04-03T14:49:59;9.20;99.90
11511;DHT22;5812;48.864;9.190;2023-04-03T14:52:34;9.70;99.90
11511;DHT22;5812;48.864;9.190;2023-04-03T14:55:02;10.00;99.90
11511;DHT22;5812;48.864;9.190;2023-04-03T14:57:29;9.60;99.90
11511;DHT22;5812;48.864;9.190;2023-04-03T14:59:56;9.40;99.90
11511;DHT22;5812;48.864;9.190;2023-04-03T15:02:36;9.40;99.90
11511;DHT22;5812;48.864;9.190;2023-04-03T15:05:08;9.40;99.90
11511;DHT22;5812;48.864;9.190;2023-04-03T15:07:50;10.00;99.90
11511;DHT22;5812;48.864;9.190;2023-04-03T15:10:20;10.30;99.90
11511;DHT22;5812;48.864;9.190;2023-04-03T15:12:46;11.60;99.90
11511;DHT22;5812;48.864;9.190;2023-04-03T15:15:13;11.80;99.90
11511;DHT22;5812;48.864;9.190;2023-04-03T15:17:39;10.90;99.90
11511;DHT22;5812;48.864;9.190;2023-04-03T15:20:13;10.30;99.90
11511;DHT22;5812;48.864;9.190;2023-04-03T15:22:39;9.50;99.90
11511;DHT22;5812;48.864;9.190;2023-04-03T15:25:06;9.00;99.90
11511;DHT22;5812;48.864;9.190;2023-04-03T15:27:32;8.90;99.90
11511;DHT22;5812;48.864;9.190;2023-04-03T15:29:57;8.70;99.90
11511;DHT22;5812;48.864;9.190;2023-04-03T15:32:23;8.50;99.90
11511;DHT22;5812;48.864;9.190;2023-04-03T15:34:49;8.00;99.90
11511;DHT22;5812;48.864;9.190;2023-04-03T15:37:14;7.90;99.90
11511;DHT22;5812;48.864;9.190;2023-04-03T15:39:40;8.40;99.90
11511;DHT22;5812;48.864;9.190;2023-04-03T15:42:06;9.70;99.90
11511;DHT22;5812;48.864;9.190;2023-04-03T15:44:33;10.20;99.90
11511;DHT22;5812;48.864;9.190;2023-04-03T15:46:59;11.10;99.90
11511;DHT22;5812;48.864;9.190;2023-04-03T15:49:25;11.60;99.90
11511;DHT22;5812;48.864;9.190;2023-04-03T15:51:51;10.90;99.90
11511;DHT22;5812;48.864;9.190;2023-04-03T15:54:17;12.20;99.90
11511;DHT22;5812;48.864;9.190;2023-04-03T15:56:43;11.90;99.90
11511;DHT22;5812;48.864;9.190;2023-04-03T15:59:09;11.80;99.90
11511;DHT22;5812;48.864;9.190;2023-04-03T16:01:34;11.60;99.90
11511;DHT22;5812;48.864;9.190;2023-04-03T16:04:01;10.40;99.90
11511;DHT22;5812;48.864;9.190;2023-04-03T16:06:27;9.50;99.90
11511;DHT22;5812;48.864;9.190;2023-04-03T16:08:54;8.80;99.90
11511;DHT22;5812;48.864;9.190;2023-04-03T16:11:24;8.40;99.90
11511;DHT22;5812;48.864;9.190;2023-04-03T16:13:49;7.90;99.90
11511;DHT22;5812;48.864;9.190;2023-04-03T16:16:15;7.70;99.90
11511;DHT22;5812;48.864;9.190;2023-04-03T16:18:41;7.50;99.90
11511;DHT22;5812;48.864;9.190;2023-04-03T16:21:08;7.40;99.90
11511;DHT22;5812;48.864;9.190;2023-04-03T16:23:34;7.60;99.90
11511;DHT22;5812;48.864;9.190;2023-04-03T16:26:00;7.70;99.90
11511;DHT22;5812;48.864;9.190;2023-04-03T16:28:26;8.70;99.90
11511;DHT22;5812;48.864;9.190;2023-04-03T16:30:51;8.90;99.90
11511;DHT22;5812;48.864;9.190;2023-04-03T16:33:17;8.50;99.90
11511;DHT22;5812;48.864;9.190;2023-04-03T16:35:46;8.00;99.90
11511;DHT22;5812;48.864;9.190;2023-04-03T16:38:13;7.90;99.90
11511;DHT22;5812;48.864;9.190;2023-04-03T16:40:39;7.80;99.90
11511;DHT22;5812;48.864;9.190;2023-04-03T16:43:04;7.90;99.90
11511;DHT22;5812;48.864;9.190;2023-04-03T16:45:30;7.40;99.90
11511;DHT22;5812;48.864;9.190;2023-04-03T16:47:56;7.10;99.90
11511;DHT22;5812;48.864;9.190;2023-04-03T16:50:21;7.00;99.90
11511;DHT22;5812;48.864;9.190;2023-04-03T16:52:47;6.90;99.90
11511;DHT22;5812;48.864;9.190;2023-04-03T16:55:13;6.90;99.90
11511;DHT22;5812;48.864;9.190;2023-04-03T16:57:38;6.90;99.90
11511;DHT22;5812;48.864;9.190;2023-04-03T17:00:05;6.80;99.90
11511;DHT22;5812;48.864;9.190;2023-04-03T17:02:31;6.70;99.90
11511;DHT22;5812;48.864;9.190;2023-04-03T17:04:57;6.60;99.90
11511;DHT22;5812;48.864;9.190;2023-04-03T17:07:24;6.60;99.90
11511;DHT22;5812;48.864;9.190;2023-04-03T17:09:50;6.60;99.90
11511;DHT22;5812;48.864;9.190;2023-04-03T17:12:17;6.70;99.90
11511;DHT22;5812;48.864;9.190;2023-04-03T17:14:42;6.60;99.90
11511;DHT22;5812;48.864;9.190;2023-04-03T17:17:08;6.60;99.90
11511;DHT22;5812;48.864;9.190;2023-04-03T17:19:36;6.50;99.90
11511;DHT22;5812;48.864;9.190;2023-04-03T17:22:02;6.40;99.90
11511;DHT22;5812;48.864;9.190;2023-04-03T17:26:56;6.30;99.90
11511;DHT22;5812;48.864;9.190;2023-04-03T17:29:22;6.20;99.90
11511;DHT22;5812;48.864;9.190;2023-04-03T17:31:47;6.20;99.90
11511;DHT22;5812;48.864;9.190;2023-04-03T17:34:13;6.00;99.90
11511;DHT22;5812;48.864;9.190;2023-04-03T17:36:38;5.90;99.90
11511;DHT22;5812;48.864;9.190;2023-04-03T17:39:04;5.80;99.90
11511;DHT22;5812;48.864;9.190;2023-04-03T17:41:30;5.70;99.90
11511;DHT22;5812;48.864;9.190;2023-04-03T17:43:56;5.70;99.90
11511;DHT22;5812;48.864;9.190;2023-04-03T17:46:23;5.70;99.90